createdAt,value
2022-10-02T00:02:30.113Z,100.00
2022-10-02T00:06:43.645Z,100.00
2022-10-02T00:10:57.124Z,100.00
2022-10-02T00:15:29.584Z,100.00
2022-10-02T00:19:31.734Z,100.00
2022-10-02T00:23:41.106Z,100.00
2022-10-02T00:28:02.935Z,100.00
2022-10-02T00:32:28.971Z,100.00
2022-10-02T00:36:52.835Z,100.00
2022-10-02T00:41:19.797Z,100.00
2022-10-02T00:45:55.965Z,100.00
2022-10-02T00:50:24.121Z,100.00
2022-10-02T00:54:31.447Z,100.00
2022-10-02T00:58:41.731Z,100.00
2022-10-02T01:02:43.589Z,100.00
2022-10-02T01:06:45.909Z,100.00
2022-10-02T01:10:48.290Z,100.00
2022-10-02T01:14:50.296Z,100.00
2022-10-02T01:18:52.546Z,100.00
2022-10-02T01:23:17.139Z,100.00
2022-10-02T01:27:19.521Z,100.00
2022-10-02T01:31:22.552Z,100.00
2022-10-02T01:35:32.321Z,100.00
2022-10-02T01:39:34.968Z,100.00
2022-10-02T01:43:45.451Z,100.00
2022-10-02T01:48:07.181Z,100.00
2022-10-02T01:52:21.287Z,100.00
2022-10-02T01:56:49.219Z,100.00
2022-10-02T02:01:15.991Z,100.00
2022-10-02T02:05:41.648Z,100.00
2022-10-02T02:09:54.378Z,100.00
2022-10-02T02:14:14.725Z,100.00
2022-10-02T02:18:25.958Z,100.00
2022-10-02T02:22:33.254Z,100.00
2022-10-02T02:26:36.197Z,100.00
2022-10-02T02:30:42.736Z,100.00
2022-10-02T02:34:51.333Z,100.00
2022-10-02T02:39:02.994Z,100.00
2022-10-02T02:43:10.861Z,100.00
2022-10-02T02:47:28.456Z,100.00
2022-10-02T02:51:35.268Z,100.00
2022-10-02T02:55:47.687Z,100.00
2022-10-02T02:59:50.871Z,100.00
2022-10-02T03:03:53.178Z,100.00
2022-10-02T03:08:03.348Z,100.00
2022-10-02T03:12:54.098Z,100.00
2022-10-02T03:17:26.928Z,100.00
2022-10-02T03:21:43.860Z,100.00
2022-10-02T03:26:04.631Z,100.00
2022-10-02T03:30:12.749Z,100.00
2022-10-02T03:34:14.856Z,100.00
2022-10-02T03:38:18.862Z,100.00
2022-10-02T03:42:26.178Z,100.00
2022-10-02T03:46:28.121Z,100.00
2022-10-02T03:50:34.134Z,100.00
2022-10-02T03:54:38.517Z,100.00
2022-10-02T03:58:45.205Z,100.00
2022-10-02T04:02:58.031Z,100.00
2022-10-02T04:07:04.773Z,100.00
2022-10-02T04:11:16.817Z,100.00
2022-10-02T04:15:30.835Z,100.00
2022-10-02T04:19:35.952Z,100.00
2022-10-02T04:23:49.294Z,100.00
2022-10-02T04:27:59.411Z,100.00
2022-10-02T04:32:13.309Z,100.00
2022-10-02T04:36:38.608Z,100.00
2022-10-02T04:40:58.841Z,100.00
2022-10-02T04:45:20.643Z,100.00
2022-10-02T04:49:47.248Z,100.00
2022-10-02T04:54:07.998Z,100.00
2022-10-02T04:58:28.865Z,100.00
2022-10-02T05:02:48.184Z,100.00
2022-10-02T05:07:33.312Z,100.00
2022-10-02T05:11:58.552Z,100.00
2022-10-02T05:16:50.500Z,100.00
2022-10-02T05:21:01.159Z,100.00
2022-10-02T05:25:29.013Z,100.00
2022-10-02T05:29:55.110Z,100.00
2022-10-02T05:34:12.111Z,100.00
2022-10-02T05:38:30.250Z,100.00
2022-10-02T05:42:49.344Z,100.00
2022-10-02T05:47:05.488Z,100.00
2022-10-02T05:51:16.376Z,100.00
2022-10-02T05:55:28.450Z,100.00
2022-10-02T05:59:52.139Z,100.00
2022-10-02T06:04:14.994Z,100.00
2022-10-02T06:08:21.833Z,100.00
2022-10-02T06:12:30.816Z,100.00
2022-10-02T06:16:37.102Z,100.00
2022-10-02T06:20:48.465Z,100.00
2022-10-02T06:25:14.160Z,100.00
2022-10-02T06:29:31.352Z,100.00
2022-10-02T06:33:33.537Z,100.00
2022-10-02T06:37:56.637Z,100.00
2022-10-02T06:42:16.682Z,100.00
2022-10-02T06:46:53.109Z,100.00
2022-10-02T06:51:12.608Z,100.00
2022-10-02T06:55:40.717Z,100.00
2022-10-02T07:00:05.654Z,100.00
2022-10-02T07:04:16.844Z,100.00
2022-10-02T07:08:47.195Z,100.00
2022-10-02T07:13:26.232Z,100.00
2022-10-02T07:17:34.360Z,100.00
2022-10-02T07:21:48.666Z,100.00
2022-10-02T07:26:05.816Z,100.00
2022-10-02T07:30:12.871Z,100.00
2022-10-02T07:34:33.465Z,100.00
2022-10-02T07:38:47.947Z,100.00
2022-10-02T07:43:20.385Z,100.00
2022-10-02T07:47:41.192Z,100.00
2022-10-02T07:51:58.026Z,100.00
2022-10-02T07:56:00.732Z,100.00
2022-10-02T08:00:16.397Z,100.00
2022-10-02T08:04:26.878Z,100.00
2022-10-02T08:08:50.722Z,100.00
2022-10-02T08:13:00.460Z,100.00
2022-10-02T08:17:23.146Z,100.00
2022-10-02T08:21:26.193Z,100.00
2022-10-02T08:25:52.469Z,100.00
2022-10-02T08:29:54.436Z,100.00
2022-10-02T08:33:57.537Z,100.00
2022-10-02T08:38:21.553Z,100.00
2022-10-02T08:42:49.631Z,100.00
2022-10-02T08:47:37.177Z,100.00
2022-10-02T08:52:13.881Z,100.00
2022-10-02T08:56:24.735Z,100.00
2022-10-02T09:00:39.713Z,100.00
2022-10-02T09:05:09.633Z,100.00
2022-10-02T09:09:42.839Z,100.00
2022-10-02T09:14:17.675Z,100.00
2022-10-02T09:18:46.279Z,100.00
2022-10-02T09:23:22.164Z,98.69
2022-10-02T09:28:04.752Z,99.40
2022-10-02T09:32:12.626Z,99.15
2022-10-02T09:36:33.728Z,98.64
2022-10-02T09:41:07.136Z,97.11
2022-10-02T09:45:32.330Z,95.38
2022-10-02T09:49:42.109Z,94.39
2022-10-02T09:53:57.200Z,93.07
2022-10-02T09:58:38.021Z,92.28
2022-10-02T10:02:42.824Z,90.71
2022-10-02T10:07:03.200Z,91.77
2022-10-02T10:11:47.675Z,90.56
2022-10-02T10:16:19.843Z,88.00
2022-10-02T10:20:36.648Z,85.65
2022-10-02T10:24:55.121Z,85.74
2022-10-02T10:29:39.767Z,85.44
2022-10-02T10:34:03.099Z,86.77
2022-10-02T10:38:33.092Z,86.50
2022-10-02T10:43:07.587Z,87.93
2022-10-02T10:47:29.103Z,87.38
2022-10-02T10:51:52.847Z,87.67
2022-10-02T10:56:14.430Z,88.59
2022-10-02T11:00:31.529Z,88.51
2022-10-02T11:05:07.733Z,88.03
2022-10-02T11:09:34.710Z,88.01
2022-10-02T11:14:23.018Z,86.34
2022-10-02T11:18:46.659Z,84.32
2022-10-02T11:23:34.116Z,83.78
2022-10-02T11:27:57.498Z,83.10
2022-10-02T11:32:14.210Z,83.12
2022-10-02T11:36:42.648Z,84.43
2022-10-02T11:40:50.952Z,85.98
2022-10-02T11:45:18.758Z,86.94
2022-10-02T11:50:02.079Z,87.91
2022-10-02T11:54:19.276Z,88.40
2022-10-02T11:58:51.493Z,90.21
2022-10-02T12:03:25.623Z,89.04
2022-10-02T12:07:38.838Z,87.70
2022-10-02T12:12:27.857Z,85.49
2022-10-02T12:17:06.320Z,85.80
2022-10-02T12:21:47.660Z,81.02
2022-10-02T12:26:17.642Z,83.47
2022-10-02T12:30:24.062Z,84.31
2022-10-02T12:34:50.251Z,84.03
2022-10-02T12:39:24.570Z,83.79
2022-10-02T12:44:05.828Z,84.07
2022-10-02T12:48:45.962Z,82.75
2022-10-02T12:53:22.703Z,80.40
2022-10-02T12:57:52.805Z,82.12
2022-10-02T13:02:56.065Z,81.52
2022-10-02T13:07:13.533Z,79.52
2022-10-02T13:11:39.258Z,79.24
2022-10-02T13:15:54.719Z,79.73
2022-10-02T13:20:13.647Z,80.13
2022-10-02T13:24:40.419Z,81.48
2022-10-02T13:29:23.473Z,80.52
2022-10-02T13:34:06.883Z,81.05
2022-10-02T13:38:23.233Z,81.36
2022-10-02T13:42:46.984Z,82.52
2022-10-02T13:46:56.907Z,81.99
2022-10-02T13:51:18.555Z,82.83
2022-10-02T13:55:26.244Z,82.77
2022-10-02T13:59:34.228Z,83.88
2022-10-02T14:03:54.589Z,84.96
2022-10-02T14:08:26.537Z,85.49
2022-10-02T14:12:49.929Z,85.86
2022-10-02T14:16:55.675Z,86.85
2022-10-02T14:21:00.627Z,86.96
2022-10-02T14:25:22.763Z,87.78
2022-10-02T14:29:38.908Z,88.58
2022-10-02T14:34:01.380Z,87.93
2022-10-02T14:38:27.955Z,86.93
2022-10-02T14:42:43.559Z,87.84
2022-10-02T14:47:08.433Z,87.90
2022-10-02T14:51:31.522Z,88.60
2022-10-02T14:55:54.902Z,87.94
2022-10-02T15:00:13.667Z,88.35
2022-10-02T15:04:30.072Z,87.95
2022-10-02T15:09:05.473Z,88.91
2022-10-02T15:13:26.698Z,89.06
2022-10-02T15:18:09.521Z,88.66
2022-10-02T15:22:20.217Z,89.68
2022-10-02T15:26:52.282Z,89.48
2022-10-02T15:31:12.582Z,89.57
2022-10-02T15:35:29.240Z,89.97
2022-10-02T15:39:48.215Z,90.77
2022-10-02T15:44:31.734Z,91.51
2022-10-02T15:49:04.950Z,92.60
2022-10-02T15:53:37.067Z,93.05
2022-10-02T15:57:57.168Z,93.42
2022-10-02T16:02:21.638Z,93.94
2022-10-02T16:06:50.655Z,95.06
2022-10-02T16:11:15.375Z,95.64
2022-10-02T16:15:29.500Z,96.43
2022-10-02T16:19:50.221Z,97.67
2022-10-02T16:24:11.011Z,98.91
2022-10-02T16:28:45.232Z,99.77
2022-10-02T16:33:26.155Z,100.00
2022-10-02T16:37:45.027Z,100.00
2022-10-02T16:41:59.808Z,100.00
2022-10-02T16:46:25.045Z,100.00
2022-10-02T16:51:05.197Z,100.00
2022-10-02T16:55:25.739Z,100.00
2022-10-02T16:59:38.761Z,100.00
2022-10-02T17:03:48.540Z,100.00
2022-10-02T17:07:59.803Z,100.00
2022-10-02T17:12:13.205Z,100.00
2022-10-02T17:16:45.763Z,100.00
2022-10-02T17:20:51.292Z,100.00
2022-10-02T17:25:15.883Z,100.00
2022-10-02T17:29:27.821Z,100.00
2022-10-02T17:33:44.203Z,100.00
2022-10-02T17:38:14.133Z,100.00
2022-10-02T17:42:30.282Z,100.00
2022-10-02T17:46:56.186Z,100.00
2022-10-02T17:51:47.575Z,100.00
2022-10-02T17:56:23.191Z,100.00
2022-10-02T18:00:26.460Z,100.00
2022-10-02T18:04:39.494Z,100.00
2022-10-02T18:08:50.724Z,100.00
2022-10-02T18:13:11.697Z,100.00
2022-10-02T18:17:20.816Z,100.00
2022-10-02T18:21:35.297Z,100.00
2022-10-02T18:25:45.881Z,100.00
2022-10-02T18:30:13.225Z,100.00
2022-10-02T18:34:34.073Z,100.00
2022-10-02T18:38:59.587Z,100.00
2022-10-02T18:43:18.797Z,100.00
2022-10-02T18:47:46.838Z,100.00
2022-10-02T18:51:49.025Z,100.00
2022-10-02T18:56:04.356Z,100.00
2022-10-02T19:00:15.689Z,100.00
2022-10-02T19:04:17.707Z,100.00
2022-10-02T19:08:30.590Z,100.00
2022-10-02T19:12:33.805Z,100.00
2022-10-02T19:16:35.879Z,100.00
2022-10-02T19:20:48.949Z,100.00
2022-10-02T19:24:57.526Z,100.00
2022-10-02T19:29:08.365Z,100.00
2022-10-02T19:33:21.560Z,100.00
2022-10-02T19:37:26.190Z,100.00
2022-10-02T19:41:34.112Z,100.00
2022-10-02T19:45:41.136Z,100.00
2022-10-02T19:49:47.328Z,100.00
2022-10-02T19:53:58.224Z,100.00
2022-10-02T19:58:06.324Z,100.00
2022-10-02T20:02:18.391Z,100.00
2022-10-02T20:06:23.046Z,100.00
2022-10-02T20:10:50.765Z,100.00
2022-10-02T20:15:43.610Z,100.00
2022-10-02T20:19:56.066Z,100.00
2022-10-02T20:24:00.655Z,100.00
2022-10-02T20:28:14.045Z,100.00
2022-10-02T20:32:24.129Z,100.00
2022-10-02T20:36:37.915Z,100.00
2022-10-02T20:40:46.438Z,100.00
2022-10-02T20:44:49.115Z,100.00
2022-10-02T20:49:20.433Z,100.00
2022-10-02T20:53:34.681Z,100.00
2022-10-02T20:58:12.181Z,100.00
2022-10-02T21:02:17.852Z,100.00
2022-10-02T21:06:32.127Z,100.00
2022-10-02T21:10:45.105Z,100.00
2022-10-02T21:15:00.830Z,100.00
2022-10-02T21:19:31.118Z,100.00
2022-10-02T21:23:58.401Z,100.00
2022-10-02T21:28:24.218Z,100.00
2022-10-02T21:32:47.720Z,100.00
2022-10-02T21:36:58.521Z,100.00
2022-10-02T21:41:04.143Z,100.00
2022-10-02T21:45:36.153Z,100.00
2022-10-02T21:50:12.158Z,100.00
2022-10-02T21:54:52.450Z,100.00
2022-10-02T21:59:28.645Z,100.00
2022-10-02T22:04:03.025Z,100.00
2022-10-02T22:08:13.972Z,100.00
2022-10-02T22:12:58.662Z,100.00
2022-10-02T22:17:11.189Z,100.00
2022-10-02T22:21:37.986Z,100.00
2022-10-02T22:25:58.017Z,100.00
2022-10-02T22:30:00.184Z,100.00
2022-10-02T22:34:32.431Z,100.00
2022-10-02T22:38:42.089Z,100.00
2022-10-02T22:43:01.064Z,100.00
2022-10-02T22:47:13.783Z,100.00
2022-10-02T22:51:22.841Z,100.00
2022-10-02T22:55:33.925Z,100.00
2022-10-02T22:59:45.879Z,100.00
2022-10-02T23:03:56.440Z,100.00
2022-10-02T23:08:15.913Z,100.00
2022-10-02T23:12:39.849Z,100.00
2022-10-02T23:16:48.951Z,100.00
2022-10-02T23:21:29.951Z,100.00
2022-10-02T23:25:46.125Z,100.00
2022-10-02T23:30:04.515Z,100.00
2022-10-02T23:34:17.577Z,100.00
2022-10-02T23:38:48.170Z,100.00
2022-10-02T23:42:58.796Z,100.00
2022-10-02T23:47:10.034Z,100.00
2022-10-02T23:51:27.651Z,100.00
2022-10-02T23:55:48.404Z,100.00
